Saint Gabriel, Louisiana
Current Conditions -  °F | °C
As of 12:15 PM on Thursday 27 Nov 2014 (Local Time) from KL38 Reporting Station
Clear Clear  
Wind Chill: 59°   Ceiling: Unl
Heat Index: 59°   Visibility: 10mi
Dew Point: 32°   Wind: 7mph
Humidity: 36%   Direction: 360°N
Pressure: 30.41"   Gusts: NA
Location:  30.26°N, 91.1°W
Report Text: KL38 271815Z AUTO 36006KT 10SM CLR 15/00 A3041 RMK AO2 T01511001
Loading
Personal Weather Stations






























Interactive Weather Map New forecast layout! Learn more

10-Day Weather Forecast

Advertisements
Track Severe Weather on mobile